Time;durP1;ratioP1;P1;durP2;ratioP2;P2;SDS_P1;SDS_P2;PMS_P1;PMS_P2;Temp;Humidity;BMP_temperature;BMP_pressure;BME280_temperature;BME280_humidity;BME280_pressure;Samples;Min_cycle;Max_cycle;Signal;HPM_P1;HPM_P2
2022/12/10 00:02:07;;;;;;;51.40;25.47;;;0.40;99.90;;;;;;5052044;28;20842;-58
2022/12/10 00:04:35;;;;;;;59.00;27.17;;;0.30;99.90;;;;;;5051684;28;20533;-58
2022/12/10 00:07:01;;;;;;;53.03;26.00;;;0.30;99.90;;;;;;5051386;28;20488;-58
2022/12/10 00:09:28;;;;;;;52.73;25.27;;;0.30;99.90;;;;;;5051850;28;20458;-58
2022/12/10 00:11:55;;;;;;;55.00;27.80;;;0.30;99.90;;;;;;5051705;28;20454;-59
2022/12/10 00:14:21;;;;;;;56.57;26.03;;;0.20;99.90;;;;;;5051591;28;20451;-54
2022/12/10 00:16:48;;;;;;;53.67;26.50;;;0.20;99.90;;;;;;5051128;28;21061;-55
2022/12/10 00:19:16;;;;;;;54.17;26.90;;;0.20;99.90;;;;;;5051713;28;20821;-58
2022/12/10 00:21:44;;;;;;;57.23;28.30;;;0.10;99.90;;;;;;5052832;28;20450;-57
2022/12/10 00:24:11;;;;;;;56.83;26.30;;;0.20;99.90;;;;;;5051723;28;20910;-54
2022/12/10 00:26:39;;;;;;;57.43;27.10;;;0.30;99.90;;;;;;5050938;28;20464;-57
2022/12/10 00:29:10;;;;;;;52.73;27.47;;;0.30;99.90;;;;;;5051830;28;20977;-54
2022/12/10 00:31:38;;;;;;;51.03;25.47;;;0.30;99.90;;;;;;5051177;28;20507;-56
2022/12/10 00:34:06;;;;;;;57.53;26.50;;;0.30;99.90;;;;;;5051590;28;20448;-57
2022/12/10 00:36:35;;;;;;;53.57;26.53;;;0.30;99.90;;;;;;5050989;28;20476;-58
2022/12/10 00:39:05;;;;;;;54.57;27.77;;;0.30;99.90;;;;;;5043373;28;20450;-57
2022/12/10 00:41:32;;;;;;;50.67;25.77;;;0.00;99.90;;;;;;5051183;28;20453;-58
2022/12/10 00:43:59;;;;;;;55.83;27.03;;;0.00;99.90;;;;;;5051114;28;20479;-58
2022/12/10 00:46:26;;;;;;;54.83;27.03;;;0.10;99.90;;;;;;5051206;28;20614;-56
2022/12/10 00:48:53;;;;;;;57.30;27.73;;;0.10;99.90;;;;;;5051393;28;20451;-57
2022/12/10 00:51:22;;;;;;;56.90;26.77;;;0.20;99.90;;;;;;5050941;28;20450;-56
2022/12/10 00:53:51;;;;;;;58.70;26.97;;;0.10;99.90;;;;;;5051114;28;20454;-58
2022/12/10 00:56:21;;;;;;;52.43;25.67;;;0.00;99.90;;;;;;5050368;28;20484;-57
2022/12/10 00:58:49;;;;;;;54.03;26.07;;;0.10;99.90;;;;;;5051425;28;20470;-58
2022/12/10 01:01:18;;;;;;;58.53;26.60;;;0.00;99.90;;;;;;5050755;28;20957;-58
2022/12/10 01:03:45;;;;;;;59.33;27.50;;;0.00;99.90;;;;;;5052160;28;20885;-58
2022/12/10 01:06:15;;;;;;;56.03;26.80;;;0.10;99.90;;;;;;5054670;28;20966;-58
2022/12/10 01:08:42;;;;;;;54.53;25.93;;;0.10;99.90;;;;;;5054475;28;20942;-59
2022/12/10 01:11:10;;;;;;;51.80;25.07;;;0.00;99.90;;;;;;5055038;28;20446;-59
2022/12/10 01:13:38;;;;;;;50.93;25.57;;;-0.10;99.90;;;;;;5054547;28;20464;-59
2022/12/10 01:16:06;;;;;;;54.63;25.33;;;-0.10;99.90;;;;;;5054410;28;20459;-59
2022/12/10 01:18:34;;;;;;;53.60;25.17;;;-0.10;99.90;;;;;;5054527;28;20512;-59
2022/12/10 01:21:04;;;;;;;55.23;28.20;;;-0.10;99.90;;;;;;5054575;28;20451;-59
2022/12/10 01:23:33;;;;;;;51.50;26.27;;;0.00;99.90;;;;;;5054343;28;20489;-59
2022/12/10 01:26:01;;;;;;;56.77;26.87;;;0.10;99.90;;;;;;5054408;28;20468;-59
2022/12/10 01:28:30;;;;;;;57.37;26.00;;;0.10;99.90;;;;;;5054433;28;20448;-59
2022/12/10 01:31:02;;;;;;;55.23;24.90;;;0.10;99.90;;;;;;5054129;28;20542;-57
2022/12/10 01:33:29;;;;;;;58.43;27.37;;;0.00;99.90;;;;;;5054332;28;20483;-57
2022/12/10 01:35:56;;;;;;;53.30;26.13;;;0.00;99.90;;;;;;5054140;28;20476;-56
2022/12/10 01:38:23;;;;;;;53.17;26.70;;;0.00;99.90;;;;;;5054025;28;20454;-57
2022/12/10 01:40:49;;;;;;;54.67;24.60;;;0.00;99.90;;;;;;5054120;28;20554;-57
2022/12/10 01:43:16;;;;;;;55.97;26.77;;;0.10;99.90;;;;;;5053855;28;20451;-57
2022/12/10 01:45:43;;;;;;;49.27;24.10;;;0.10;99.90;;;;;;5054098;28;20456;-57
2022/12/10 01:48:11;;;;;;;56.17;26.83;;;0.10;99.90;;;;;;5053894;28;20462;-57
2022/12/10 01:50:38;;;;;;;55.70;26.93;;;0.10;99.90;;;;;;5053950;28;20973;-57
2022/12/10 01:53:05;;;;;;;53.77;25.37;;;0.00;99.90;;;;;;5053998;28;20443;-57
2022/12/10 01:55:45;;;;;;;54.00;26.63;;;0.00;99.90;;;;;;5053470;28;20449;-57
2022/12/10 01:58:13;;;;;;;50.63;26.07;;;0.00;99.90;;;;;;5053794;28;20455;-57
2022/12/10 02:00:47;;;;;;;54.90;24.23;;;0.10;99.90;;;;;;5053751;28;20458;-57
2022/12/10 02:03:22;;;;;;;56.53;26.27;;;0.10;99.90;;;;;;5053641;28;20461;-57
2022/12/10 02:05:54;;;;;;;46.83;24.13;;;0.20;99.90;;;;;;5053676;28;20921;-56
2022/12/10 02:08:28;;;;;;;47.53;23.87;;;0.20;99.90;;;;;;5053754;28;20499;-56
2022/12/10 02:11:04;;;;;;;50.33;23.60;;;0.10;99.90;;;;;;5053330;28;20461;-57
2022/12/10 02:13:34;;;;;;;52.57;24.67;;;0.10;99.90;;;;;;5053897;28;20472;-57
2022/12/10 02:16:06;;;;;;;51.33;24.27;;;0.10;99.90;;;;;;5052633;28;20472;-57
2022/12/10 02:18:39;;;;;;;49.33;24.90;;;0.10;99.90;;;;;;5053817;28;20456;-58
2022/12/10 02:21:11;;;;;;;52.03;24.73;;;0.20;99.90;;;;;;5053306;28;20451;-57
2022/12/10 02:23:41;;;;;;;48.87;24.37;;;0.30;99.90;;;;;;5044287;28;21006;-57
2022/12/10 02:26:16;;;;;;;53.10;24.70;;;0.30;99.90;;;;;;5046525;28;20465;-57
2022/12/10 02:28:49;;;;;;;50.10;23.57;;;0.20;99.90;;;;;;5053348;28;20497;-57
2022/12/10 02:31:22;;;;;;;52.37;24.53;;;0.30;99.90;;;;;;5053303;28;20453;-57
2022/12/10 02:33:52;;;;;;;49.87;24.27;;;0.30;99.90;;;;;;5053262;28;20831;-55
2022/12/10 02:36:21;;;;;;;55.07;23.70;;;0.30;99.90;;;;;;5052940;28;20468;-58
2022/12/10 02:38:51;;;;;;;52.47;25.90;;;0.40;99.90;;;;;;5053080;28;20455;-57
2022/12/10 02:41:23;;;;;;;51.33;24.27;;;0.30;99.90;;;;;;5053067;28;20451;-57
2022/12/10 02:43:53;;;;;;;44.57;23.93;;;0.30;99.90;;;;;;5052955;28;20544;-57
2022/12/10 02:46:23;;;;;;;49.60;23.67;;;0.30;99.90;;;;;;5052473;28;20495;-57
2022/12/10 02:48:51;;;;;;;46.87;23.83;;;0.40;99.90;;;;;;5053237;28;20456;-55
2022/12/10 02:51:18;;;;;;;44.03;22.20;;;0.30;99.90;;;;;;5052790;28;20454;-57
2022/12/10 02:53:45;;;;;;;49.90;23.73;;;0.20;99.90;;;;;;5053061;28;20472;-58
2022/12/10 02:56:20;;;;;;;47.73;23.07;;;0.20;99.90;;;;;;5052625;28;20470;-57
2022/12/10 02:58:58;;;;;;;51.03;23.07;;;0.20;99.90;;;;;;5053030;28;20508;-58
2022/12/10 03:01:36;;;;;;;46.07;23.03;;;0.20;99.90;;;;;;5053402;28;20862;-57
2022/12/10 03:04:09;;;;;;;45.33;22.97;;;0.30;99.90;;;;;;5045340;28;20857;-57
2022/12/10 03:06:39;;;;;;;42.37;21.00;;;0.20;99.90;;;;;;5035713;28;21032;-57
2022/12/10 03:09:10;;;;;;;41.63;20.00;;;0.10;99.90;;;;;;5052436;28;20456;-57
2022/12/10 03:11:40;;;;;;;39.13;20.03;;;0.20;99.90;;;;;;5052676;28;20458;-57
2022/12/10 03:14:13;;;;;;;42.00;21.30;;;0.20;99.90;;;;;;5053213;28;20880;-58
2022/12/10 03:16:46;;;;;;;39.60;21.20;;;0.20;99.90;;;;;;5052242;28;20525;-58
2022/12/10 03:19:17;;;;;;;36.23;18.87;;;0.20;99.90;;;;;;5052591;28;20450;-58
2022/12/10 03:21:47;;;;;;;38.43;18.80;;;0.20;99.90;;;;;;5052744;28;20455;-55
2022/12/10 03:24:16;;;;;;;38.23;19.43;;;0.30;99.90;;;;;;5052353;28;20489;-57
2022/12/10 03:26:44;;;;;;;38.07;18.33;;;0.30;99.90;;;;;;5051623;28;20572;-57
2022/12/10 03:29:16;;;;;;;37.77;18.70;;;0.30;99.90;;;;;;5051642;28;20454;-57
2022/12/10 03:31:44;;;;;;;34.87;19.00;;;0.30;99.90;;;;;;5052276;28;20505;-57
2022/12/10 03:34:12;;;;;;;35.83;18.60;;;0.30;99.90;;;;;;5051898;28;20444;-58
2022/12/10 03:36:39;;;;;;;34.73;17.87;;;0.20;99.90;;;;;;5051960;28;20534;-57
2022/12/10 03:39:08;;;;;;;34.97;18.73;;;0.20;99.90;;;;;;5051986;28;20499;-57
2022/12/10 03:41:35;;;;;;;33.07;18.33;;;0.10;99.90;;;;;;5052129;28;20840;-58
2022/12/10 03:44:02;;;;;;;33.27;18.93;;;0.10;99.90;;;;;;5051676;28;20455;-57
2022/12/10 03:46:30;;;;;;;33.70;17.30;;;0.20;99.90;;;;;;5051480;28;20466;-58
2022/12/10 03:48:59;;;;;;;30.23;17.70;;;0.20;99.90;;;;;;5051652;28;20451;-57
2022/12/10 03:51:26;;;;;;;31.67;18.10;;;0.20;99.90;;;;;;5051791;28;20445;-58
2022/12/10 03:53:53;;;;;;;31.87;18.37;;;0.30;99.90;;;;;;5051798;28;20454;-60
2022/12/10 03:56:20;;;;;;;38.20;19.40;;;0.30;99.90;;;;;;5051652;28;20468;-57
2022/12/10 03:58:47;;;;;;;36.70;19.50;;;0.40;99.90;;;;;;5051917;28;20459;-57
2022/12/10 04:01:14;;;;;;;34.10;19.20;;;0.40;99.90;;;;;;5051409;28;20943;-53
2022/12/10 04:03:42;;;;;;;32.33;18.13;;;0.50;99.90;;;;;;5051928;28;20464;-56
2022/12/10 04:06:13;;;;;;;37.13;18.57;;;0.50;99.90;;;;;;5051574;28;20488;-55
2022/12/10 04:08:40;;;;;;;32.47;17.23;;;0.50;99.90;;;;;;5051586;28;20482;-57
2022/12/10 04:11:10;;;;;;;35.10;18.87;;;0.50;99.90;;;;;;5051365;28;20474;-57
2022/12/10 04:16:30;;;;;;;32.27;16.63;;;0.50;99.90;;;;;;5051324;28;20953;-58
2022/12/10 04:18:59;;;;;;;31.67;16.53;;;0.50;99.90;;;;;;5051617;28;20455;-58
2022/12/10 04:27:01;;;;;;;34.87;17.43;;;0.40;99.90;;;;;;5051214;28;20597;-57
2022/12/10 04:29:30;;;;;;;31.50;16.33;;;0.40;99.90;;;;;;5051845;28;20461;-59
2022/12/10 04:31:58;;;;;;;32.70;17.63;;;0.30;99.90;;;;;;5051728;28;20497;-59
2022/12/10 04:34:25;;;;;;;33.17;17.43;;;0.30;99.90;;;;;;5051502;28;21004;-59
2022/12/10 04:36:53;;;;;;;30.50;17.33;;;0.30;99.90;;;;;;5050776;28;21016;-59
2022/12/10 04:39:20;;;;;;;33.93;18.27;;;0.20;99.90;;;;;;5053527;28;20450;-59
2022/12/10 04:41:49;;;;;;;35.03;17.23;;;0.10;99.90;;;;;;5054604;28;20454;-59
2022/12/10 04:44:16;;;;;;;31.43;17.37;;;0.10;99.90;;;;;;5055157;28;20447;-61
2022/12/10 04:46:43;;;;;;;33.37;17.07;;;0.20;99.90;;;;;;5055045;28;20473;-59
2022/12/10 04:49:10;;;;;;;33.23;18.03;;;0.30;99.90;;;;;;5055154;28;20863;-58
2022/12/10 04:51:37;;;;;;;32.17;18.40;;;0.30;99.90;;;;;;5055071;28;20451;-58
2022/12/10 04:54:06;;;;;;;31.33;18.07;;;0.30;99.90;;;;;;5055254;28;20508;-59
2022/12/10 04:56:32;;;;;;;35.00;17.53;;;0.40;99.90;;;;;;5054847;28;20560;-58
2022/12/10 04:59:00;;;;;;;29.53;16.87;;;0.40;99.90;;;;;;5054964;28;20947;-59
2022/12/10 05:01:27;;;;;;;36.43;18.03;;;0.40;99.90;;;;;;5054904;28;20458;-59
2022/12/10 05:03:54;;;;;;;33.07;16.83;;;0.40;99.90;;;;;;5054778;28;20512;-59
2022/12/10 05:06:21;;;;;;;32.33;16.83;;;0.50;99.90;;;;;;5054589;28;20492;-58
2022/12/10 05:08:48;;;;;;;30.63;17.17;;;0.40;99.90;;;;;;5054791;28;20455;-59
2022/12/10 05:11:19;;;;;;;32.23;17.13;;;0.40;99.90;;;;;;5054859;28;20533;-59
2022/12/10 05:13:46;;;;;;;28.30;15.13;;;0.50;99.90;;;;;;5054669;28;20505;-58
2022/12/10 05:16:14;;;;;;;26.23;14.93;;;0.40;99.90;;;;;;5053936;28;20471;-59
2022/12/10 05:18:41;;;;;;;31.93;16.63;;;0.40;99.90;;;;;;5054797;28;20452;-59
2022/12/10 05:21:12;;;;;;;29.77;16.97;;;0.30;99.90;;;;;;5054802;28;20453;-59
2022/12/10 05:23:39;;;;;;;30.47;17.83;;;0.40;99.90;;;;;;5054696;28;20466;-59
2022/12/10 05:26:09;;;;;;;30.93;16.37;;;0.40;99.90;;;;;;5054095;28;20491;-59
2022/12/10 05:28:38;;;;;;;30.47;16.67;;;0.40;99.90;;;;;;5054128;28;20446;-59
2022/12/10 05:31:06;;;;;;;32.07;16.90;;;0.30;99.90;;;;;;5054215;28;20452;-59
2022/12/10 05:33:32;;;;;;;28.20;15.50;;;0.40;99.90;;;;;;5054397;28;20459;-59
2022/12/10 05:36:01;;;;;;;27.77;15.17;;;0.50;99.90;;;;;;5054163;28;20471;-59
2022/12/10 05:38:30;;;;;;;28.00;15.67;;;0.40;99.90;;;;;;5053622;28;20505;-59
2022/12/10 05:41:01;;;;;;;27.07;14.53;;;0.40;99.90;;;;;;5053935;28;20449;-59
2022/12/10 05:43:28;;;;;;;32.93;16.47;;;0.40;99.90;;;;;;5053957;28;20451;-59
2022/12/10 05:46:00;;;;;;;28.43;14.73;;;0.40;99.90;;;;;;5054078;28;20487;-59
2022/12/10 05:48:26;;;;;;;25.77;15.07;;;0.40;99.90;;;;;;5054237;28;20521;-59
2022/12/10 05:50:53;;;;;;;28.00;16.20;;;0.30;99.90;;;;;;5053102;28;20458;-59
2022/12/10 05:53:20;;;;;;;28.63;15.90;;;0.30;99.90;;;;;;5053789;28;20456;-60
2022/12/10 05:55:46;;;;;;;29.57;16.43;;;0.30;99.90;;;;;;5053529;28;20451;-58
2022/12/10 05:58:13;;;;;;;27.47;15.07;;;0.30;99.90;;;;;;5053530;28;20451;-59
2022/12/10 06:00:41;;;;;;;27.40;15.47;;;0.20;99.90;;;;;;5053698;28;20960;-59
2022/12/10 06:03:09;;;;;;;26.80;15.43;;;0.20;99.90;;;;;;5053624;28;20506;-59
2022/12/10 06:05:37;;;;;;;25.90;14.60;;;0.20;98.80;;;;;;5053708;28;20487;-57
2022/12/10 06:08:04;;;;;;;24.30;14.27;;;0.10;97.40;;;;;;5053335;28;20455;-59
2022/12/10 06:10:31;;;;;;;24.70;14.23;;;0.10;96.20;;;;;;5053520;28;20453;-59
2022/12/10 06:12:57;;;;;;;25.80;15.37;;;0.10;94.60;;;;;;5053824;28;20451;-59
2022/12/10 06:15:24;;;;;;;29.10;15.90;;;0.10;93.10;;;;;;5053816;28;20499;-59
2022/12/10 06:17:51;;;;;;;25.33;15.67;;;0.00;90.90;;;;;;5053440;28;20526;-59
2022/12/10 06:20:19;;;;;;;25.97;14.70;;;-0.10;86.30;;;;;;5053593;28;20450;-59
2022/12/10 06:22:45;;;;;;;27.23;14.10;;;-0.10;83.20;;;;;;5053551;28;20820;-59
2022/12/10 06:25:13;;;;;;;27.67;14.57;;;-0.20;83.40;;;;;;5053198;28;20480;-59
2022/12/10 06:27:40;;;;;;;27.53;14.73;;;-0.30;84.10;;;;;;5053505;28;20475;-59
2022/12/10 06:30:07;;;;;;;27.17;13.93;;;-0.30;84.20;;;;;;5053555;28;20511;-59
2022/12/10 06:32:34;;;;;;;25.13;14.47;;;-0.30;81.40;;;;;;5053770;28;20455;-59
2022/12/10 06:35:01;;;;;;;26.37;15.40;;;-0.40;79.60;;;;;;5053858;28;20456;-59
2022/12/10 06:37:29;;;;;;;31.13;16.33;;;-0.50;81.50;;;;;;5052793;28;20501;-59
2022/12/10 06:39:55;;;;;;;31.20;16.47;;;-0.70;86.50;;;;;;5053345;28;20457;-59
2022/12/10 06:42:22;;;;;;;26.03;14.43;;;-0.80;91.50;;;;;;5053558;28;20457;-58
2022/12/10 06:44:49;;;;;;;29.53;15.83;;;-0.80;95.20;;;;;;5052991;28;20539;-58
2022/12/10 06:47:15;;;;;;;25.20;12.97;;;-0.90;98.10;;;;;;5052909;28;20475;-57
2022/12/10 06:49:42;;;;;;;25.63;14.47;;;-0.90;99.90;;;;;;5052956;28;20452;-59
2022/12/10 06:52:09;;;;;;;29.77;15.47;;;-1.00;99.90;;;;;;5052836;28;20456;-57
2022/12/10 06:54:37;;;;;;;30.00;15.17;;;-1.00;99.90;;;;;;5052463;28;20457;-57
2022/12/10 06:57:04;;;;;;;30.43;14.57;;;-1.10;99.90;;;;;;5052605;28;20975;-57
2022/12/10 06:59:30;;;;;;;27.97;14.87;;;-1.10;99.90;;;;;;5052761;28;20452;-59
2022/12/10 07:01:57;;;;;;;28.80;15.37;;;-1.20;99.90;;;;;;5052884;28;20442;-59
2022/12/10 07:04:24;;;;;;;22.93;15.20;;;-1.20;99.90;;;;;;5052966;28;20825;-60
2022/12/10 07:06:50;;;;;;;24.60;14.53;;;-1.20;99.90;;;;;;5052116;28;21056;-59
2022/12/10 07:09:17;;;;;;;27.43;15.20;;;-1.30;99.90;;;;;;5053018;28;20518;-59
2022/12/10 07:11:45;;;;;;;31.77;16.10;;;-1.30;99.90;;;;;;5052516;28;20448;-61
2022/12/10 07:14:15;;;;;;;30.87;15.87;;;-1.30;99.90;;;;;;5052889;28;20444;-60
2022/12/10 07:16:42;;;;;;;30.87;15.77;;;-1.40;99.90;;;;;;5052341;28;20476;-60
2022/12/10 07:19:11;;;;;;;32.00;15.43;;;-1.40;99.90;;;;;;5052685;28;20457;-59
2022/12/10 07:21:40;;;;;;;25.67;14.67;;;-1.40;99.90;;;;;;5052440;28;20452;-60
2022/12/10 07:24:10;;;;;;;31.87;15.23;;;-1.40;99.90;;;;;;5052647;28;20861;-59
2022/12/10 07:26:38;;;;;;;23.73;13.27;;;-1.40;99.90;;;;;;5052062;28;20492;-60
2022/12/10 07:29:10;;;;;;;23.63;14.57;;;-1.40;99.90;;;;;;5052268;28;20506;-60
2022/12/10 07:31:37;;;;;;;28.97;14.53;;;-1.40;99.90;;;;;;5051947;28;20494;-59
2022/12/10 07:34:04;;;;;;;27.93;15.57;;;-1.40;99.90;;;;;;5052181;28;20946;-59
2022/12/10 07:36:30;;;;;;;28.33;15.40;;;-1.40;99.90;;;;;;5051604;28;20466;-59
2022/12/10 07:38:57;;;;;;;26.67;15.33;;;-1.40;99.90;;;;;;5052199;28;20463;-59
2022/12/10 07:41:25;;;;;;;32.07;17.60;;;-1.40;99.90;;;;;;5051514;28;20494;-53
2022/12/10 07:43:52;;;;;;;37.03;18.93;;;-1.50;99.90;;;;;;5051941;28;20527;-56
2022/12/10 07:46:22;;;;;;;37.20;19.27;;;-1.50;99.90;;;;;;5051670;28;20537;-56
2022/12/10 07:48:49;;;;;;;39.23;19.87;;;-1.50;99.90;;;;;;5051721;28;21022;-52
2022/12/10 07:51:20;;;;;;;37.77;19.43;;;-1.50;99.90;;;;;;5052007;28;20449;-56
2022/12/10 07:53:47;;;;;;;39.43;20.40;;;-1.50;99.90;;;;;;5052013;28;20491;-57
2022/12/10 07:56:14;;;;;;;35.33;18.30;;;-1.40;99.90;;;;;;5051500;28;20467;-57
2022/12/10 07:58:42;;;;;;;39.20;19.77;;;-1.40;99.90;;;;;;5051948;28;20455;-57
2022/12/10 08:01:11;;;;;;;35.03;16.93;;;-1.40;99.90;;;;;;5052218;28;20444;-57
2022/12/10 08:03:40;;;;;;;35.33;18.63;;;-1.40;99.90;;;;;;5051837;28;20939;-57
2022/12/10 08:06:09;;;;;;;44.40;20.80;;;-1.40;99.90;;;;;;5051731;28;20492;-56
2022/12/10 08:08:36;;;;;;;41.10;20.07;;;-1.40;99.90;;;;;;5051688;28;21105;-54
2022/12/10 08:11:04;;;;;;;44.93;20.67;;;-1.40;99.90;;;;;;5051733;28;20452;-57
2022/12/10 08:13:31;;;;;;;47.93;22.03;;;-1.40;99.90;;;;;;5050942;28;20448;-55
2022/12/10 08:16:02;;;;;;;42.23;20.77;;;-1.50;99.90;;;;;;5051299;28;20476;-57
2022/12/10 08:18:29;;;;;;;52.10;21.27;;;-1.40;99.90;;;;;;5051813;28;20452;-58
2022/12/10 08:20:57;;;;;;;50.37;23.20;;;-1.50;99.90;;;;;;5051350;28;20935;-58
2022/12/10 08:23:24;;;;;;;50.67;21.37;;;-1.40;99.90;;;;;;5051718;28;20451;-56
2022/12/10 08:25:51;;;;;;;52.87;22.33;;;-1.50;99.90;;;;;;5051410;28;21010;-57
2022/12/10 08:28:17;;;;;;;49.67;21.57;;;-1.40;99.90;;;;;;5051374;28;20448;-58
2022/12/10 08:30:46;;;;;;;52.83;21.90;;;-1.40;99.90;;;;;;5051684;28;20456;-57
2022/12/10 08:33:13;;;;;;;56.57;22.50;;;-1.40;99.90;;;;;;5051347;28;20455;-58
2022/12/10 08:35:40;;;;;;;55.10;24.23;;;-1.40;99.90;;;;;;5051376;28;20451;-58
2022/12/10 08:38:08;;;;;;;63.40;24.23;;;-1.40;99.90;;;;;;5050876;28;20448;-57
2022/12/10 08:40:34;;;;;;;63.23;24.30;;;-1.30;99.90;;;;;;5051169;28;20455;-58
2022/12/10 08:43:01;;;;;;;55.97;23.23;;;-1.30;99.90;;;;;;5051159;28;20456;-58
2022/12/10 08:45:28;;;;;;;45.50;17.73;;;-1.30;99.90;;;;;;5051004;28;20453;-57
2022/12/10 08:47:54;;;;;;;54.73;23.03;;;-1.30;99.90;;;;;;5051119;28;20518;-58
2022/12/10 08:50:21;;;;;;;63.37;22.40;;;-1.40;99.90;;;;;;5051186;28;20459;-58
2022/12/10 08:52:48;;;;;;;62.57;22.23;;;-1.40;99.90;;;;;;5051313;28;20448;-58
2022/12/10 08:55:16;;;;;;;53.87;24.50;;;-1.40;99.90;;;;;;5051402;28;20846;-58
2022/12/10 08:57:42;;;;;;;61.27;23.23;;;-1.40;99.90;;;;;;5051044;28;20468;-58
2022/12/10 09:00:11;;;;;;;62.17;25.20;;;-1.40;99.90;;;;;;5051243;28;20513;-58
2022/12/10 09:02:38;;;;;;;56.90;23.63;;;-1.50;99.90;;;;;;5050822;28;20550;-58
2022/12/10 09:05:06;;;;;;;69.40;22.80;;;-1.50;99.90;;;;;;5050851;28;20448;-57
2022/12/10 09:07:33;;;;;;;65.90;20.80;;;-1.40;99.90;;;;;;5050668;28;20538;-58
2022/12/10 09:09:59;;;;;;;59.10;23.30;;;-1.50;99.90;;;;;;5051380;28;20451;-57
2022/12/10 09:12:27;;;;;;;53.87;22.87;;;-1.40;99.90;;;;;;5050902;28;20447;-58
2022/12/10 09:14:55;;;;;;;59.47;22.87;;;-1.40;99.90;;;;;;5050957;28;20938;-58
2022/12/10 09:17:21;;;;;;;54.43;20.60;;;-1.40;99.90;;;;;;5051042;28;20518;-57
2022/12/10 09:19:48;;;;;;;55.00;22.37;;;-1.40;99.90;;;;;;5050999;28;20452;-58
2022/12/10 09:22:15;;;;;;;53.73;21.30;;;-1.40;99.90;;;;;;5051015;28;20947;-57
2022/12/10 09:24:42;;;;;;;59.77;21.93;;;-1.40;99.90;;;;;;5051183;28;20452;-56
2022/12/10 09:27:08;;;;;;;60.00;23.17;;;-1.40;99.90;;;;;;5053852;28;20488;-57
2022/12/10 09:29:36;;;;;;;68.80;24.87;;;-1.30;99.90;;;;;;5054570;28;20514;-58
2022/12/10 09:32:03;;;;;;;64.90;24.90;;;-1.30;99.90;;;;;;5054259;28;20461;-57
2022/12/10 09:34:30;;;;;;;63.93;24.07;;;-1.50;99.90;;;;;;5054466;28;20509;-57
2022/12/10 09:36:57;;;;;;;65.57;24.00;;;-1.40;99.90;;;;;;5054045;28;21081;-57
2022/12/10 09:39:23;;;;;;;58.30;24.73;;;-1.40;99.90;;;;;;5054584;28;20448;-58
2022/12/10 09:42:15;;;;;;;57.43;22.07;;;-1.40;99.90;;;;;;5054253;28;20980;-57
2022/12/10 09:44:52;;;;;;;54.40;20.60;;;-1.30;99.90;;;;;;5054698;28;20437;-58
2022/12/10 09:47:20;;;;;;;58.03;24.33;;;-1.20;99.90;;;;;;5053542;28;20491;-58
2022/12/10 09:50:01;;;;;;;58.57;23.33;;;-1.10;99.90;;;;;;5054637;28;20455;-58
2022/12/10 09:52:37;;;;;;;51.73;21.43;;;-1.10;99.90;;;;;;5047116;28;20452;-58
2022/12/10 09:55:10;;;;;;;53.70;23.53;;;-1.10;99.90;;;;;;5045684;28;20455;-58
2022/12/10 09:57:41;;;;;;;60.40;22.80;;;-1.00;99.90;;;;;;5053079;28;20464;-59
2022/12/10 10:00:20;;;;;;;60.57;25.07;;;-1.00;99.90;;;;;;5053823;28;20452;-59
2022/12/10 10:02:47;;;;;;;64.30;25.43;;;-1.00;99.90;;;;;;5051254;28;20443;-59
2022/12/10 10:05:20;;;;;;;72.33;24.13;;;-1.10;99.90;;;;;;5042107;28;20444;-58
2022/12/10 10:07:51;;;;;;;65.57;26.63;;;-1.00;99.90;;;;;;5041074;28;21006;-56
2022/12/10 10:10:24;;;;;;;68.37;26.03;;;-1.10;99.90;;;;;;5047027;28;20440;-59
2022/12/10 10:12:54;;;;;;;59.40;24.00;;;-1.00;99.90;;;;;;5051792;28;20460;-58
2022/12/10 10:15:26;;;;;;;76.07;27.43;;;-1.00;99.90;;;;;;5052802;28;20459;-58
2022/12/10 10:17:56;;;;;;;64.20;25.07;;;-0.90;99.90;;;;;;5052716;28;20491;-58
2022/12/10 10:20:23;;;;;;;80.13;28.63;;;-1.00;99.90;;;;;;5053344;28;20448;-59
2022/12/10 10:22:50;;;;;;;74.60;28.50;;;-0.90;99.90;;;;;;5052731;28;20821;-57
2022/12/10 10:25:19;;;;;;;66.33;26.70;;;-0.90;99.90;;;;;;5053102;28;20821;-59
2022/12/10 10:27:46;;;;;;;79.97;28.17;;;-0.80;99.90;;;;;;5052963;28;20905;-58
2022/12/10 10:30:17;;;;;;;69.13;28.83;;;-0.70;99.90;;;;;;5053170;28;20453;-57
2022/12/10 10:32:51;;;;;;;65.43;26.27;;;-0.70;99.90;;;;;;5053204;28;20452;-58
2022/12/10 10:35:28;;;;;;;67.53;28.23;;;-0.70;99.90;;;;;;5052903;28;20889;-58
2022/12/10 10:38:01;;;;;;;72.03;29.20;;;-0.60;99.90;;;;;;5052051;28;20471;-58
2022/12/10 10:40:32;;;;;;;77.57;26.90;;;-0.50;99.90;;;;;;5052518;28;20446;-59
2022/12/10 10:43:00;;;;;;;66.97;27.63;;;-0.40;99.90;;;;;;5052446;28;20816;-57
2022/12/10 10:45:40;;;;;;;77.33;29.07;;;-0.40;99.90;;;;;;5052371;28;20504;-56
2022/12/10 10:48:13;;;;;;;71.67;27.57;;;-0.30;99.90;;;;;;5052790;28;20543;-57
2022/12/10 10:50:42;;;;;;;64.57;25.87;;;-0.20;99.90;;;;;;5052639;28;20448;-57
2022/12/10 10:53:29;;;;;;;69.03;30.00;;;-0.20;99.90;;;;;;5052554;28;20465;-58
2022/12/10 10:56:00;;;;;;;66.43;28.50;;;-0.20;99.90;;;;;;5052111;28;20498;-61
2022/12/10 10:58:27;;;;;;;66.23;27.23;;;-0.40;99.90;;;;;;5052593;28;20446;-61
2022/12/10 11:01:00;;;;;;;72.80;28.03;;;-0.20;99.90;;;;;;5052160;28;20451;-60
2022/12/10 11:03:30;;;;;;;74.37;28.33;;;-0.20;99.90;;;;;;5052196;28;20803;-60
2022/12/10 11:05:58;;;;;;;73.77;29.97;;;-0.20;99.90;;;;;;5049592;28;20477;-60
2022/12/10 11:08:28;;;;;;;64.47;28.00;;;-0.20;99.90;;;;;;5051710;28;20445;-57
2022/12/10 11:11:01;;;;;;;66.50;25.57;;;-0.10;99.90;;;;;;5051656;28;20539;-57
2022/12/10 11:13:30;;;;;;;63.00;27.87;;;-0.10;99.90;;;;;;5051700;28;20453;-54
2022/12/10 11:16:00;;;;;;;72.17;29.17;;;-0.10;99.90;;;;;;5051064;28;20477;-55
2022/12/10 11:18:32;;;;;;;68.17;29.80;;;0.00;99.90;;;;;;5050615;28;20452;-51
2022/12/10 11:21:02;;;;;;;65.20;28.27;;;0.00;99.90;;;;;;5043815;28;20447;-53
2022/12/10 11:23:30;;;;;;;75.27;29.63;;;0.00;99.90;;;;;;5052093;28;20454;-61
2022/12/10 11:26:09;;;;;;;69.63;28.43;;;0.00;99.90;;;;;;5048285;28;20554;-61
2022/12/10 11:28:46;;;;;;;58.10;25.73;;;0.10;99.90;;;;;;5051252;28;20530;-60
2022/12/10 11:31:26;;;;;;;68.07;28.80;;;0.10;99.90;;;;;;5051859;28;20449;-60
2022/12/10 11:34:01;;;;;;;62.90;27.53;;;0.10;99.90;;;;;;5051954;28;20448;-60
2022/12/10 11:36:38;;;;;;;65.67;27.47;;;0.20;99.90;;;;;;5051416;28;20503;-57
2022/12/10 11:39:20;;;;;;;70.53;29.97;;;0.10;99.90;;;;;;5043655;28;20451;-58
2022/12/10 11:41:53;;;;;;;67.77;27.23;;;0.00;99.90;;;;;;5052017;28;20445;-61
2022/12/10 11:44:30;;;;;;;75.67;29.77;;;0.00;99.90;;;;;;5052032;28;20454;-59
2022/12/10 11:47:12;;;;;;;69.83;29.23;;;0.00;99.90;;;;;;5051728;28;20990;-59
2022/12/10 11:49:48;;;;;;;71.63;27.97;;;-0.10;99.90;;;;;;5051125;28;20438;-58
2022/12/10 11:52:21;;;;;;;70.93;29.43;;;0.00;99.90;;;;;;5051716;28;20443;-59
2022/12/10 11:55:08;;;;;;;70.20;29.83;;;0.10;99.90;;;;;;5052150;28;20431;-57
2022/12/10 11:57:44;;;;;;;68.23;29.60;;;0.00;99.90;;;;;;5051831;28;20468;-55
2022/12/10 12:00:19;;;;;;;70.23;28.70;;;0.00;99.90;;;;;;5051913;28;20459;-56
2022/12/10 12:03:04;;;;;;;70.83;27.73;;;-0.10;99.90;;;;;;5051775;28;20463;-53
2022/12/10 12:05:46;;;;;;;65.53;29.00;;;-0.10;99.90;;;;;;5051802;28;20885;-56
2022/12/10 12:08:25;;;;;;;71.47;32.43;;;-0.10;99.90;;;;;;5051568;28;20881;-57
2022/12/10 12:11:13;;;;;;;63.47;28.43;;;-0.40;99.90;;;;;;5051541;28;20877;-57
2022/12/10 12:13:44;;;;;;;61.33;26.80;;;-0.20;99.90;;;;;;5051894;28;20472;-53
2022/12/10 12:16:15;;;;;;;68.13;29.43;;;-0.30;99.90;;;;;;5051324;28;20485;-57
2022/12/10 12:18:49;;;;;;;59.23;27.43;;;-0.20;99.90;;;;;;5051667;28;20454;-57
2022/12/10 12:21:18;;;;;;;63.83;29.40;;;-0.30;99.90;;;;;;5051415;28;20481;-56
2022/12/10 12:23:51;;;;;;;62.43;25.77;;;-0.30;99.90;;;;;;5051315;28;20451;-58
2022/12/10 12:26:24;;;;;;;66.63;27.77;;;-0.30;99.90;;;;;;5051254;28;21036;-57
2022/12/10 12:28:56;;;;;;;66.10;27.27;;;-0.20;99.90;;;;;;5051728;28;20448;-58
2022/12/10 12:31:28;;;;;;;73.83;29.37;;;-0.20;99.90;;;;;;5051514;28;20814;-57
2022/12/10 12:34:02;;;;;;;67.40;26.83;;;-0.10;99.90;;;;;;5051286;28;20849;-57
2022/12/10 12:36:34;;;;;;;76.93;30.80;;;-0.10;99.90;;;;;;5051326;28;20878;-57
2022/12/10 12:39:06;;;;;;;69.33;29.90;;;-0.10;99.90;;;;;;5043535;28;20445;-56
2022/12/10 12:41:42;;;;;;;63.10;26.83;;;-0.20;99.90;;;;;;5051403;28;20502;-57
2022/12/10 12:44:16;;;;;;;64.23;28.00;;;-0.10;99.90;;;;;;5051068;28;20894;-57
2022/12/10 12:46:45;;;;;;;71.87;30.87;;;-0.20;99.90;;;;;;5051266;28;20821;-56
2022/12/10 12:49:19;;;;;;;63.90;28.77;;;-0.20;99.90;;;;;;5051410;28;20943;-57
2022/12/10 12:51:52;;;;;;;63.87;25.60;;;-0.20;99.90;;;;;;5051473;28;20463;-57
2022/12/10 12:54:19;;;;;;;62.57;25.37;;;-0.30;99.90;;;;;;5047730;28;20560;-54